Tiempo atmosférico en la estación meteorológica de Gaucín, Málaga (545 m.)

Fecha
DESCASC
Temp. máxima en grados centígrados (hora)
DESCASC
Temp. mínima en grados centígrados (hora)
DESCASC
Temp. media en grados centígrados
DESCASC
Racha de viento máxima en m/sg (hora)
DESCASC
Velocidad máxima media en intervalos de 10 minutos(hora)
DESCASC
Precipitaciones diarias en mm
DESCASC
Precipitaciones de 00:00 a 06:00 en mm
DESCASC
Precipitaciones de 06:00 a 12:00 en mm
DESCASC
Precipitaciones de 12:00 a 18:00 en mm
DESCASC
Precipitaciones de 18:00 a 24:00 en mm
DESCASC
17-08-2017 -- (--) -- (--) -- -- (--) -- (--) -- -- -- -- --
16-08-2017 -- (--) -- (--) -- -- (--) -- (--) -- 0 0 -- --
15-08-2017 28.7 (17:10) 18.9 (00:00) 23.8 8.06 (17:30) 5 (14:50) 0 0 0 0 0
14-08-2017 29.2 (17:20) 19.2 (06:50) 24.2 6.94 (12:40) 3.61 (18:30) 0 0 0 0 0
13-08-2017 28.8 (16:30) 19.3 (00:00) 24 8.06 (16:10) 3.06 (17:20) 0 0 0 0 0
12-08-2017 27.7 (17:50) 19.1 (00:00) 23.4 9.72 (13:10) 3.06 (17:50) 0 0 0 0 0
11-08-2017 29 (18:00) 19.3 (00:00) 24.1 9.72 (15:40) 3.06 (10:40) 0 0 0 0 0
10-08-2017 27.4 (15:10) 17.5 (00:00) 22.4 8.61 (13:30) 4.44 (00:50) 0 0 0 0 0
09-08-2017 30.8 (16:20) 18.1 (00:00) 24.4 10.83 (13:20) 6.11 (13:30) 0 0 0 0 0
08-08-2017 -- (--) -- (--) -- -- (--) -- (--) -- 0 0 0 --
07-08-2017 32.6 (16:00) 20.9 (00:00) 26.7 7.5 (15:00) 4.72 (15:00) 0 0 0 0 0
06-08-2017 34.5 (15:00) 22.2 (00:00) 28.4 7.5 (16:50) 4.72 (08:10) 0 0 0 0 0
05-08-2017 35.6 (15:40) 23.7 (00:00) 29.6 7.5 (16:30) 4.17 (16:20) 0 0 0 0 0
04-08-2017 37 (15:30) 23.4 (00:00) 30.2 8.61 (16:00) 5.56 (16:50) 0 0 0 0 0
03-08-2017 36 (18:00) 20.4 (00:00) 28.2 8.33 (15:50) 5 (15:50) 0 0 0 0 0
02-08-2017 34 (17:30) 18.8 (00:00) 26.4 8.61 (15:00) 4.44 (16:20) 0 0 0 0 0
01-08-2017 -- (--) -- (--) -- -- (--) -- (--) -- 0 -- 0 0
31-07-2017 34.5 (17:40) 20.3 (00:00) 27.4 7.78 (02:50) 5 (03:10) 0 0 0 0 0
30-07-2017 35.6 (17:40) 23 (00:00) 29.3 7.5 (15:50) 4.44 (16:30) 0 0 0 0 0
29-07-2017 35.4 (17:30) 22.5 (00:00) 29 8.06 (14:30) 4.44 (16:10) 0 0 0 0 0
28-07-2017 37.2 (17:40) 21.3 (00:00) 29.3 8.33 (17:10) 4.72 (16:30) 0 0 0 0 0
27-07-2017 30.4 (18:40) 19.1 (00:00) 24.8 6.67 (14:50) 3.89 (14:50) 0 0 0 0 0
26-07-2017 29.7 (17:40) 18.1 (00:00) 23.9 7.78 (16:10) 5 (16:00) 0 0 0 0 0
25-07-2017 29.8 (17:20) 21.8 (00:00) 25.8 7.22 (16:10) 4.44 (05:40) 0 0 0 0 0
24-07-2017 35.2 (15:20) 17.8 (00:00) 26.5 10.28 (17:40) 4.72 (04:40) 0 0 0 0 0
23-07-2017 33.3 (17:40) 17.7 (00:00) 25.5 7.5 (16:10) 4.72 (19:00) 0 0 0 0 0
22-07-2017 32.1 (17:50) 15.6 (00:00) 23.8 7.78 (15:00) 4.44 (04:20) 0 0 0 0 0

Gráficas

Temp. máximas Temp. mínimas Temp. medias Precipitaciones Rachas de viento máximas Velocidades máximas media en intervalos de 10 minutos

Datos horarios

Fecha y hora oficial Temperatura (ºC) Velocidad del viento (km/h) Dirección del viento Racha (km/h) Dirección de racha Precipitación (mm) Presión (hPa) Tendencia (hPa) Humedad (%)
2017-08-20 23:00:00 22 2 Noroeste 6 Nordeste 0 -- -- 73
2017-08-20 22:00:00 22.5 3 Sudoeste 10 Este 0 -- -- 72
2017-08-20 21:00:00 23.9 4 Oeste 13 Este 0 -- -- 68
2017-08-20 20:00:00 26 6 Oeste 16 Sudoeste 0 -- -- 61
2017-08-20 19:00:00 28 8 Sur 19 Sudeste 0 -- -- 56
2017-08-20 18:00:00 28.7 6 Sudoeste 21 Sudeste 0 -- -- 55
2017-08-20 17:00:00 29.2 9 Sudoeste 21 Sudeste 0 -- -- 53
2017-08-20 16:00:00 28.9 7 Oeste 24 Sudeste 0 -- -- 53
2017-08-20 15:00:00 28.8 8 Sudoeste 23 Este 0 -- -- 54
2017-08-20 14:00:00 28.3 8 Sur 22 Este 0 -- -- 55
2017-08-20 13:00:00 27.9 9 Oeste 23 Este 0 -- -- 52
2017-08-20 12:00:00 26.7 5 Sudeste 19 Sur 0 -- -- 57
2017-08-20 11:00:00 24.7 9 Sudoeste 20 Sudeste 0 -- -- 62
2017-08-20 10:00:00 23.2 7 Sudoeste 15 Sur 0 -- -- 66
2017-08-20 09:00:00 21.6 5 Sudoeste 15 Sur 0 -- -- 68
2017-08-20 08:00:00 21.2 4 Sudoeste 11 Sur 0 -- -- 63
2017-08-20 07:00:00 21.6 4 Oeste 12 Este 0 -- -- 60
2017-08-20 06:00:00 21.5 3 Noroeste 22 Nordeste 0 -- -- 66
2017-08-20 05:00:00 21.5 3 Este 20 Norte 0 -- -- 73
2017-08-20 04:00:00 20.9 3 Oeste 10 Oeste 0 -- -- 84
2017-08-20 03:00:00 21.3 2 Sudoeste 10 Oeste 0 -- -- 82
2017-08-20 02:00:00 21.2 2 Sudoeste 9 Sudoeste 0 -- -- 86
2017-08-20 01:00:00 21.1 0 Calma 5 Sur 0 -- -- 86
2017-08-20 00:00:00 21 2 Este 5 Sudoeste 0 -- -- 86
2017-08-19 23:00:00 21.1 0 Calma 9 Norte 0 -- -- 89
2017-08-19 22:00:00 21.6 4 Norte 7 Noroeste 0 -- -- 87
2017-08-19 21:00:00 22.3 0 Calma 18 Sur 0 -- -- 85
2017-08-19 20:00:00 23.4 11 Sudoeste 20 Sudoeste 0 -- -- 80
2017-08-19 19:00:00 25.9 9 Sudoeste 22 Sudoeste 0 -- -- 71
2017-08-19 18:00:00 26.9 13 Sudoeste 26 Sur 0 -- -- 68
2017-08-19 17:00:00 27 15 Sudoeste 28 Sudoeste 0 -- -- 67
2017-08-19 16:00:00 27.4 17 Sudoeste 27 Sudoeste 0 -- -- 66
2017-08-19 15:00:00 28.1 15 Sudoeste 26 Sudoeste 0 -- -- 64
2017-08-19 14:00:00 29 13 Sudoeste 22 Sur 0 -- -- 58
2017-08-19 13:00:00 29.1 10 Sudoeste 20 Sudoeste 0 -- -- 55
2017-08-19 12:00:00 27.9 9 Sudoeste 14 Sudoeste 0 -- -- 54
2017-08-19 11:00:00 27.2 3 Sudoeste 10 Sudoeste 0 -- -- 53
2017-08-19 10:00:00 25.7 0 Calma 12 Nordeste 0 -- -- 58
2017-08-19 09:00:00 21.8 12 Nordeste 14 Nordeste 0 -- -- 69
2017-08-19 08:00:00 21.3 11 Norte 15 Nordeste 0 -- -- 73
2017-08-19 07:00:00 21.5 6 Norte 16 Nordeste 0 -- -- 71
2017-08-19 06:00:00 22.4 10 Nordeste 15 Nordeste 0 -- -- 72
2017-08-19 05:00:00 22.2 13 Nordeste 16 Nordeste 0 -- -- 74
2017-08-19 04:00:00 23.4 8 Norte 14 Nordeste 0 -- -- 70
2017-08-19 03:00:00 23.2 9 Nordeste 14 Norte 0 -- -- 75
2017-08-19 02:00:00 23.1 11 Nordeste 14 Nordeste 0 -- -- 76
2017-08-19 01:00:00 23 8 Nordeste 11 Norte 0 -- -- 78
2017-08-19 00:00:00 22.8 0 Calma 2 Sur 0 -- -- 79
2017-08-18 23:00:00 23.3 0 Calma 4 Nordeste 0 -- -- 77
2017-08-18 22:00:00 23.9 0 Calma 3 Nordeste 0 -- -- 75
2017-08-18 21:00:00 25.3 0 Calma 9 Sudoeste 0 -- -- 69
2017-08-18 20:00:00 27.7 5 Sudoeste 13 Sudoeste 0 -- -- 62
2017-08-18 19:00:00 29.4 8 Sudoeste 16 Sudoeste 0 -- -- 58
2017-08-18 18:00:00 29.6 11 Sudoeste 20 Sudoeste 0 -- -- 57
2017-08-18 17:00:00 29.1 11 Sudoeste 21 Sur 0 -- -- 59
2017-08-18 16:00:00 28.7 14 Sudoeste 24 Sudoeste 0 -- -- 61
2017-08-18 15:00:00 28.5 15 Sudoeste 24 Sudoeste 0 -- -- 62
2017-08-18 14:00:00 27.2 10 Sudoeste 25 Sudoeste 0 -- -- 67
2017-08-18 13:00:00 25.7 13 Sudoeste 23 Sudoeste 0 -- -- 72
2017-08-18 12:00:00 24.8 11 Sudoeste 21 Oeste 0 -- -- 75
2017-08-18 11:00:00 23.3 6 Sudoeste 15 Sudoeste 0 -- -- 81
2017-08-18 10:00:00 22.7 4 Sur 6 Sur 0 -- -- 79
2017-08-18 09:00:00 20 3 Nordeste 12 Nordeste 0 -- -- 92
2017-08-18 08:00:00 19.3 7 Nordeste 11 Nordeste 0 -- -- 92
2017-08-18 07:00:00 20.2 0 Calma 6 Sur 0 -- -- 88
2017-08-18 06:00:00 20.9 0 Calma 8 Nordeste 0 -- -- 81
2017-08-18 05:00:00 20.4 2 Este -- -- 0 -- -- 85
2017-08-18 04:00:00 20.4 0 Calma 6 Sudeste 0 -- -- 89
2017-08-18 03:00:00 20.5 2 Sur 15 Nordeste 0 -- -- 90
2017-08-18 02:00:00 20.4 8 Nordeste 15 Nordeste 0 -- -- 90
2017-08-18 01:00:00 20.9 3 Nordeste 9 Nordeste 0 -- -- 88
2017-08-18 00:00:00 21 2 Norte 5 Norte 0 -- -- 89
2017-08-17 23:00:00 21 5 Nordeste 12 Norte 0 -- -- 89
2017-08-17 22:00:00 21.8 9 Norte 15 Sudoeste 0 -- -- 84
2017-08-17 21:00:00 23.6 10 Sudoeste 18 Sudoeste 0 -- -- 78
2017-08-17 20:00:00 25.8 5 Sudoeste 13 Sudoeste 0 -- -- 70
2017-08-17 19:00:00 26.4 9 Sur 24 Sudoeste 0 -- -- 69
2017-08-17 18:00:00 27.7 16 Sudoeste 27 Sudoeste 0 -- -- 64
2017-08-17 17:00:00 28.9 14 Sudoeste 26 Sudoeste 0 -- -- 60
2017-08-17 16:00:00 28.7 14 Sudoeste 25 Sudoeste 0 -- -- 62
2017-08-17 15:00:00 28.4 15 Sudoeste 27 Sudoeste 0 -- -- 61
2017-08-17 14:00:00 27.7 16 Sudoeste 26 Sudoeste 0 -- -- 63
2017-08-17 13:00:00 27.2 11 Sudoeste 19 Sudoeste 0 -- -- 63
2017-08-17 12:00:00 25.1 13 Sudoeste 23 Sudoeste 0 -- -- 69
2017-08-17 11:00:00 -- -- -- -- -- -- -- -- --
2017-08-17 10:00:00 -- -- -- -- -- -- -- -- --
2017-08-17 09:00:00 -- -- -- -- -- -- -- -- --
2017-08-17 08:00:00 -- -- -- -- -- -- -- -- --
2017-08-17 07:00:00 -- -- -- -- -- -- -- -- --
2017-08-17 06:00:00 -- -- -- -- -- -- -- -- --
2017-08-17 05:00:00 -- -- -- -- -- -- -- -- --
2017-08-17 04:00:00 -- -- -- -- -- -- -- -- --
2017-08-17 03:00:00 -- -- -- -- -- -- -- -- --
2017-08-17 02:00:00 -- -- -- -- -- -- -- -- --
2017-08-17 01:00:00 -- -- -- -- -- -- -- -- --
2017-08-17 00:00:00 -- -- -- -- -- -- -- -- --
2017-08-16 23:00:00 -- -- -- -- -- -- -- -- --
2017-08-16 22:00:00 -- -- -- -- -- -- -- -- --
2017-08-16 21:00:00 -- -- -- -- -- -- -- -- --
2017-08-16 20:00:00 -- -- -- -- -- -- -- -- --
2017-08-16 19:00:00 -- -- -- -- -- -- -- -- --
2017-08-16 18:00:00 -- -- -- -- -- -- -- -- --
2017-08-16 17:00:00 -- -- -- -- -- -- -- -- --
2017-08-16 16:00:00 -- -- -- -- -- -- -- -- --
2017-08-16 15:00:00 -- -- -- -- -- -- -- -- --
2017-08-16 14:00:00 31.2 13 Sudoeste 26 Sudoeste 0 -- -- 54
2017-08-16 13:00:00 29.8 10 Sudoeste 19 Sur 0 -- -- 55
2017-08-16 12:00:00 28.7 8 Sudoeste 13 Sur 0 -- -- 53
2017-08-16 11:00:00 28.7 3 Sudoeste 6 Sudoeste 0 -- -- 45
2017-08-16 10:00:00 26.3 0 Calma 12 Nordeste 0 -- -- 50
2017-08-16 09:00:00 20.5 12 Nordeste 15 Nordeste 0 -- -- 67
2017-08-16 08:00:00 20.9 10 Norte 16 Norte 0 -- -- 65
2017-08-16 07:00:00 20.6 5 Norte 10 Norte 0 -- -- 79
2017-08-16 06:00:00 21.1 12 Nordeste 14 Nordeste 0 -- -- 78
2017-08-16 05:00:00 20.7 12 Nordeste 16 Norte 0 -- -- 84
2017-08-16 04:00:00 20.6 12 Norte 14 Norte 0 -- -- 85
2017-08-16 03:00:00 20.6 10 Nordeste 12 Nordeste 0 -- -- 83
2017-08-16 02:00:00 21.1 3 Norte 6 Norte 0 -- -- 84
2017-08-16 01:00:00 22.8 0 Calma 6 Nordeste 0 -- -- 77
2017-08-16 00:00:00 23.1 4 Nordeste 8 Este 0 -- -- 73
2017-08-15 23:00:00 22.8 0 Calma 9 Este 0 -- -- 79
2017-08-15 22:00:00 23.6 4 Norte 8 Norte 0 -- -- 76
2017-08-15 21:00:00 24.4 0 Calma 11 Sur 0 -- -- 73
2017-08-15 20:00:00 26.1 9 Sudoeste 19 Sudoeste 0 -- -- 68
2017-08-15 19:00:00 27.6 12 Sudoeste 20 Sudoeste 0 -- -- 63
2017-08-15 18:00:00 27.8 13 Sudoeste 29 Sudoeste 0 -- -- 62
2017-08-15 17:00:00 28.5 15 Sudoeste 25 Sudoeste 0 -- -- 60
2017-08-15 16:00:00 28.4 13 Sudoeste 26 Sudoeste 0 -- -- 60
2017-08-15 15:00:00 27.4 18 Sudoeste 28 Sudoeste 0 -- -- 63
2017-08-15 14:00:00 27.3 13 Sudoeste 25 Oeste 0 -- -- 64
2017-08-15 13:00:00 26.5 14 Sudoeste 22 Sur 0 -- -- 63
2017-08-15 12:00:00 25.7 10 Sudoeste 20 Sur 0 -- -- 62
2017-08-15 11:00:00 24.4 5 Sudoeste 12 Sudoeste 0 -- -- 66
2017-08-15 10:00:00 22.8 3 Sur 5 Este 0 -- -- 75
2017-08-15 09:00:00 19.8 5 Norte 13 Norte 0 -- -- 88
2017-08-15 08:00:00 18.9 7 Norte 14 Norte 0 -- -- 89
2017-08-15 07:00:00 19.2 0 Calma 6 Norte 0 -- -- 86
2017-08-15 06:00:00 19.4 0 Calma 6 Este 0 -- -- 85
2017-08-15 05:00:00 20 2 Nordeste 6 Norte 0 -- -- 82
2017-08-15 04:00:00 20.4 0 Calma 14 Nordeste 0 -- -- 80
2017-08-15 03:00:00 20.9 5 Oeste 16 Oeste 0 -- -- 77
2017-08-15 02:00:00 21.1 3 Oeste 10 Nordeste 0 -- -- 75
2017-08-15 01:00:00 21.3 3 Sudoeste 13 Este 0 -- -- 71
2017-08-15 00:00:00 21.2 3 Sudoeste 13 Sudoeste 0 -- -- 78
2017-08-14 23:00:00 21.1 4 Oeste 18 Sudoeste 0 -- -- 82
2017-08-14 22:00:00 21.1 6 Noroeste 16 Sudoeste 0 -- -- 83
2017-08-14 21:00:00 22.3 7 Sudoeste 21 Sur 0 -- -- 77
2017-08-14 20:00:00 25.8 6 Sudoeste 18 Sudoeste 0 -- -- 60
2017-08-14 19:00:00 26.9 5 Sudoeste 23 Sudoeste 0 -- -- 58
2017-08-14 18:00:00 28.6 8 Sudoeste 22 Sudoeste 0 -- -- 49
2017-08-14 17:00:00 28.8 8 Sudoeste 21 Noroeste 0 -- -- 46
2017-08-14 16:00:00 28.4 9 Sur 22 Sudoeste 0 -- -- 47
2017-08-14 15:00:00 28.2 8 Sudoeste 23 Sur 0 -- -- 49
2017-08-14 14:00:00 28.1 8 Sudoeste 24 Sur 0 -- -- 41
2017-08-14 13:00:00 26.8 8 Sudoeste 25 Este 0 -- -- 47
2017-08-14 12:00:00 26 6 Sudoeste 17 Sudoeste 0 -- -- 48
2017-08-14 11:00:00 24.5 6 Sur 17 Sudeste 0 -- -- 46
2017-08-14 10:00:00 22.6 4 Oeste 17 Sur 0 -- -- 51
2017-08-14 09:00:00 20.4 4 Oeste 13 Nordeste 0 -- -- 54
2017-08-14 08:00:00 19.8 3 Sudoeste 19 Nordeste 0 -- -- 59
2017-08-14 07:00:00 19.3 4 Oeste 9 Oeste 0 -- -- 75
2017-08-14 06:00:00 19.9 3 Sudeste 9 Este 0 -- -- 71
2017-08-14 05:00:00 19.8 2 Oeste 14 Norte 0 -- -- 74
2017-08-14 04:00:00 20.1 4 Norte 12 Norte 0 -- -- 74
2017-08-14 03:00:00 -- -- -- -- -- -- -- -- --
2017-08-14 02:00:00 20 5 Sudoeste 18 Oeste 0 -- -- 75
2017-08-14 01:00:00 20.4 7 Sudoeste 15 Sudoeste 0 -- -- 71
2017-08-14 00:00:00 20.8 3 Sudoeste 22 Sudoeste 0 -- -- 61
2017-08-13 23:00:00 21.1 6 Oeste 21 Sudeste 0 -- -- 57
2017-08-13 22:00:00 21.9 6 Nordeste 16 Este 0 -- -- 53
2017-08-13 21:00:00 23.1 8 Nordeste 17 Este 0 -- -- 48
2017-08-13 20:00:00 25.9 6 Sudoeste 21 Sudoeste 0 -- -- 46
2017-08-13 19:00:00 28.1 8 Sudoeste 20 Sudoeste 0 -- -- 39
2017-08-13 18:00:00 28.5 9 Sudoeste 21 Sur 0 -- -- 36
2017-08-13 17:00:00 28.3 9 Sudoeste 29 Oeste 0 -- -- 37
2017-08-13 16:00:00 28.1 9 Sur 26 Sur 0 -- -- 40
2017-08-13 15:00:00 28.1 6 Sudoeste 21 Sudeste 0 -- -- 41
2017-08-13 14:00:00 27.4 5 Sudoeste 19 Sur 0 -- -- 46
2017-08-13 13:00:00 25.9 6 Nordeste 18 Sudoeste 0 -- -- 47
2017-08-13 12:00:00 24.9 6 Sudeste 19 Sudeste 0 -- -- 50
2017-08-13 11:00:00 -- 5 Sudeste 13 Sudeste 0 -- -- --
2017-08-13 10:00:00 22.8 5 Sur 14 Este 0 -- -- 51
2017-08-13 09:00:00 20.7 5 Sudeste 19 Este 0 -- -- 49
2017-08-13 08:00:00 20 5 Nordeste 17 Nordeste 0 -- -- 50
2017-08-13 07:00:00 19.8 3 Noroeste 13 Oeste 0 -- -- 54
2017-08-13 06:00:00 19.6 3 Sur 14 Este 0 -- -- 58
2017-08-13 05:00:00 19.3 4 Oeste 15 Norte 0 -- -- 65
2017-08-13 04:00:00 19.8 5 Oeste 17 Sur 0 -- -- 60
2017-08-13 03:00:00 20.1 5 Oeste 13 Sudoeste 0 -- -- 54
2017-08-13 02:00:00 20.3 6 Sudoeste 22 Sudoeste 0 -- -- 58
2017-08-13 01:00:00 20.5 6 Oeste 14 Sudoeste 0 -- -- 59
2017-08-13 00:00:00 20.7 7 Oeste 17 Nordeste 0 -- -- 55
2017-08-12 23:00:00 20.7 8 Sudoeste 15 Sudoeste 0 -- -- 54
2017-08-12 22:00:00 21.1 7 Sudoeste 19 Sudoeste 0 -- -- 56
2017-08-12 21:00:00 22.9 5 Sur 19 Nordeste 0 -- -- 54
2017-08-12 20:00:00 25.7 10 Oeste 19 Oeste 0 -- -- 44
2017-08-12 19:00:00 27 7 Sudoeste 22 Este 0 -- -- 43
2017-08-12 18:00:00 27.6 9 Sudoeste 25 Oeste 0 -- -- 39
2017-08-12 17:00:00 27.5 10 Sudoeste 25 Sudeste 0 -- -- 38
2017-08-12 16:00:00 27.1 9 Sudoeste 23 Sudoeste 0 -- -- 38
2017-08-12 15:00:00 26.7 10 Sur 27 Sudoeste 0 -- -- 40
2017-08-12 14:00:00 27.2 10 Sudoeste 35 Sudoeste 0 -- -- 40
2017-08-12 13:00:00 26.3 8 Sur 29 Sudeste 0 -- -- 36
2017-08-12 12:00:00 24.9 8 Sudoeste 24 Nordeste 0 -- -- 44
2017-08-12 11:00:00 -- -- -- -- -- -- -- -- --
2017-08-12 10:00:00 -- -- -- -- -- -- -- -- --
2017-08-12 09:00:00 -- -- -- -- -- -- -- -- --
2017-08-12 08:00:00 -- -- -- -- -- -- -- -- --
2017-08-12 07:00:00 -- -- -- -- -- -- -- -- --
2017-08-12 06:00:00 -- -- -- -- -- -- -- -- --
2017-08-12 05:00:00 -- -- -- -- -- -- -- -- --
2017-08-12 04:00:00 -- -- -- -- -- -- -- -- --
2017-08-12 03:00:00 -- -- -- -- -- -- -- -- --
2017-08-12 02:00:00 21.2 7 Oeste 17 Sudoeste 0 -- -- 41
2017-08-12 01:00:00 21.9 5 Oeste 21 Este 0 -- -- 42
2017-08-12 00:00:00 22.1 6 Nordeste 16 Nordeste 0 -- -- 48
2017-08-11 23:00:00 21.6 5 Sudoeste 9 Sudoeste 0 -- -- 43
2017-08-11 22:00:00 22.2 2 Sudoeste 8 Este 0 -- -- 52
2017-08-11 21:00:00 24 3 Este 10 Sudoeste 0 -- -- 50
2017-08-11 20:00:00 27.2 9 Sudoeste 18 Oeste 0 -- -- 46
2017-08-11 19:00:00 28.5 8 Sudoeste 20 Nordeste 0 -- -- 41
2017-08-11 18:00:00 29 7 Sur 28 Norte 0 -- -- 41
2017-08-11 17:00:00 28.3 9 Oeste 22 Oeste 0 -- -- 43
2017-08-11 16:00:00 27.6 10 Sudoeste 35 Sur 0 -- -- 48
2017-08-11 15:00:00 26.8 8 Sudoeste 24 Oeste 0 -- -- 53
2017-08-11 14:00:00 27 10 Sudoeste 28 Sur 0 -- -- 54
2017-08-11 13:00:00 25.3 8 Sudoeste 21 Sur 0 -- -- 60
2017-08-11 12:00:00 24.5 5 Oeste 19 Sur 0 -- -- 62
2017-08-11 11:00:00 -- -- -- -- -- -- -- -- --
2017-08-11 10:00:00 -- -- -- -- -- -- -- -- --
2017-08-11 09:00:00 -- -- -- -- -- -- -- -- --
2017-08-11 08:00:00 -- -- -- -- -- -- -- -- --
2017-08-11 07:00:00 -- -- -- -- -- -- -- -- --
2017-08-11 06:00:00 -- -- -- -- -- -- -- -- --
2017-08-11 05:00:00 -- -- -- -- -- -- -- -- --
2017-08-11 04:00:00 -- -- -- -- -- -- -- -- --
2017-08-11 03:00:00 -- -- -- -- -- -- -- -- --
2017-08-11 02:00:00 -- -- -- -- -- -- -- -- --
2017-08-11 01:00:00 -- -- -- -- -- -- -- -- --
2017-08-11 00:00:00 -- -- -- -- -- -- -- -- --
2017-08-10 23:00:00 -- -- -- -- -- -- -- -- --
2017-08-10 22:00:00 -- -- -- -- -- -- -- -- --
2017-08-10 21:00:00 -- -- -- -- -- -- -- -- --
2017-08-10 20:00:00 -- -- -- -- -- -- -- -- --
2017-08-10 19:00:00 -- -- -- -- -- -- -- -- --
2017-08-10 18:00:00 -- -- -- -- -- -- -- -- --
2017-08-10 17:00:00 -- -- -- -- -- -- -- -- --
2017-08-10 16:00:00 -- -- -- -- -- -- -- -- --
2017-08-10 15:00:00 -- -- -- -- -- -- -- -- --
2017-08-10 14:00:00 26.5 9 Sur 31 Este 0 -- -- 57
2017-08-10 13:00:00 26.8 10 Sur 28 Sudeste 0 -- -- 55
2017-08-10 12:00:00 27 6 Sudoeste 20 Sudeste 0 -- -- 54
2017-08-10 11:00:00 25.6 6 Sudoeste 15 Sudoeste 0 -- -- 46
2017-08-10 10:00:00 24 2 Sudoeste 14 Nordeste 0 -- -- 36
2017-08-10 09:00:00 19.8 10 Norte 17 Norte 0 -- -- 41
2017-08-10 08:00:00 19.1 10 Norte 16 Norte 0 -- -- 42
2017-08-10 07:00:00 17.9 11 Nordeste 18 Nordeste 0 -- -- 45
2017-08-10 06:00:00 18 12 Norte 17 Norte 0 -- -- 45
2017-08-10 05:00:00 17.9 11 Norte 18 Norte 0 -- -- 45
2017-08-10 04:00:00 18.2 10 Norte 18 Nordeste 0 -- -- 45
2017-08-10 03:00:00 19.6 13 Nordeste 28 Noroeste 0 -- -- 42
2017-08-10 02:00:00 19.4 10 Nordeste 21 Norte 0 -- -- 45
2017-08-10 01:00:00 18.8 12 Nordeste 22 Norte 0 -- -- 49
2017-08-10 00:00:00 19.4 13 Nordeste 24 Nordeste 0 -- -- 47
2017-08-09 23:00:00 20.4 11 Nordeste 30 Norte 0 -- -- 47
2017-08-09 22:00:00 22.2 16 Norte 30 Norte 0 -- -- 41
2017-08-09 21:00:00 23.6 14 Norte 30 Norte 0 -- -- 29
2017-08-09 20:00:00 25.7 10 Norte 30 Norte 0 -- -- 29
2017-08-09 19:00:00 28.5 8 Oeste 30 Oeste 0 -- -- 30
2017-08-09 18:00:00 29.3 9 Oeste 28 Sudoeste 0 -- -- 27
2017-08-09 17:00:00 30 9 Oeste 30 Oeste 0 -- -- 23
2017-08-09 16:00:00 30.1 12 Sudoeste 32 Sudoeste 0 -- -- 19
2017-08-09 15:00:00 28.7 13 Sudoeste 32 Sudoeste 0 -- -- 27
2017-08-09 14:00:00 28 13 Oeste 39 Sudoeste 0 -- -- 31
2017-08-09 13:00:00 27 20 Sudoeste 35 Sudoeste 0 -- -- 29
2017-08-09 12:00:00 26.9 5 Sur 21 Sudoeste 0 -- -- 30
2017-08-09 11:00:00 26.5 6 Sudoeste 18 Sudoeste 0 -- -- 26
2017-08-09 10:00:00 24.8 6 Nordeste 11 Norte 0 -- -- 29
2017-08-09 09:00:00 20.1 6 Norte 14 Norte 0 -- -- 35
2017-08-09 08:00:00 18.3 10 Norte 14 Norte 0 -- -- 38
2017-08-09 07:00:00 19.3 8 Norte 15 Nordeste 0 -- -- 38
2017-08-09 06:00:00 18.4 11 Norte 16 Norte 0 -- -- 43
2017-08-09 05:00:00 19.1 10 Norte 20 Norte 0 -- -- 42
2017-08-09 04:00:00 20.3 11 Norte 20 Norte 0 -- -- 39
2017-08-09 03:00:00 22 8 Nordeste 19 Norte 0 -- -- 34
2017-08-09 02:00:00 24 11 Norte 28 Norte 0 -- -- 29
2017-08-09 01:00:00 24.1 14 Norte 33 Norte 0 -- -- 30
2017-08-09 00:00:00 23.9 16 Norte 35 Norte 0 -- -- 31
2017-08-08 23:00:00 -- -- -- -- -- -- -- -- --
2017-08-08 22:00:00 25.6 15 Norte 37 Norte 0 -- -- 30
2017-08-08 21:00:00 27.6 7 Norte 37 Norte 0 -- -- 28
2017-08-08 20:00:00 30.2 15 Norte 37 Nordeste 0 -- -- 20
2017-08-08 19:00:00 31.7 10 Noroeste 39 Norte 0 -- -- 17
2017-08-08 18:00:00 32.5 11 Noroeste 36 Norte 0 -- -- 13
2017-08-08 17:00:00 33 12 Noroeste 34 Norte 0 -- -- 14
2017-08-08 16:00:00 33 12 Noroeste 34 Noroeste 0 -- -- 12
2017-08-08 15:00:00 32.6 13 Norte 35 Noroeste 0 -- -- 11
2017-08-08 14:00:00 32.7 10 Noroeste 35 Norte 0 -- -- 13
2017-08-08 13:00:00 32 16 Norte 38 Norte 0 -- -- 13
2017-08-08 12:00:00 30.6 15 Noroeste 32 Norte 0 -- -- 10
2017-08-08 11:00:00 29.6 12 Noroeste 30 Norte 0 -- -- 17
2017-08-08 10:00:00 27.6 5 Noroeste 21 Norte 0 -- -- 28
2017-08-08 09:00:00 26.7 9 Norte 24 Noroeste 0 -- -- 23
2017-08-08 08:00:00 25.6 9 Norte 24 Norte 0 -- -- 28
2017-08-08 07:00:00 23.5 17 Norte 22 Norte 0 -- -- 46
2017-08-08 06:00:00 24.3 12 Norte 18 Noroeste 0 -- -- 45
2017-08-08 05:00:00 22.8 14 Norte 19 Nordeste 0 -- -- 67
2017-08-08 04:00:00 23.4 12 Norte 20 Norte 0 -- -- 67
2017-08-08 03:00:00 24.7 12 Nordeste 21 Norte 0 -- -- 49
2017-08-08 02:00:00 25.8 13 Norte 26 Norte 0 -- -- 46
2017-08-08 01:00:00 25.9 6 Norte 12 Norte 0 -- -- 54
2017-08-08 00:00:00 26.5 5 Nordeste 21 Norte 0 -- -- 46
2017-08-07 23:00:00 25.1 0 Calma 12 Este 0 -- -- 70
2017-08-07 22:00:00 25.6 8 Nordeste 14 Norte 0 -- -- 74
2017-08-07 21:00:00 26.6 0 Calma 8 Sudoeste 0 -- -- 71
2017-08-07 20:00:00 28.8 6 Sudoeste 14 Sudoeste 0 -- -- 64
2017-08-07 19:00:00 30.9 9 Sudoeste 18 Sudoeste 0 -- -- 57
2017-08-07 18:00:00 31.9 11 Sudoeste 21 Sudoeste 0 -- -- 54
2017-08-07 17:00:00 32.4 10 Sudoeste 23 Sudoeste 0 -- -- 52
2017-08-07 16:00:00 32.6 12 Sudoeste 27 Sudoeste 0 -- -- 46
2017-08-07 15:00:00 31.5 17 Sudoeste 27 Sudoeste 0 -- -- 48
2017-08-07 14:00:00 30.7 8 Sudoeste 18 Oeste 0 -- -- 53
2017-08-07 13:00:00 28.6 10 Sudoeste 19 Sudoeste 0 -- -- 64
2017-08-07 12:00:00 27.3 8 Sudoeste 15 Sudoeste 0 -- -- 60
2017-08-07 11:00:00 25.4 7 Sudoeste 12 Sur 0 -- -- 62
2017-08-07 10:00:00 24.1 0 Calma 7 Sur 0 -- -- 62
2017-08-07 09:00:00 22 3 Sur 6 Nordeste 0 -- -- 61
2017-08-07 08:00:00 21.4 0 Calma 13 Norte 0 -- -- 58
2017-08-07 07:00:00 21 8 Nordeste 13 Norte 0 -- -- 60
2017-08-07 06:00:00 22.2 6 Sur 14 Sur 0 -- -- 57
2017-08-07 05:00:00 23.5 6 Norte 26 Norte 0 -- -- 51
2017-08-07 04:00:00 23.1 10 Nordeste 21 Norte 0 -- -- 54
2017-08-07 03:00:00 21.9 10 Norte 19 Norte 0 -- -- 59
2017-08-07 02:00:00 23.1 4 Sudoeste 9 Sur 0 -- -- 55
2017-08-07 01:00:00 24 0 Calma 9 Nordeste 0 -- -- 52
2017-08-07 00:00:00 24.4 2 Sur 12 Norte 0 -- -- 52
2017-08-06 23:00:00 27.1 0 Calma 8 Nordeste 0 -- -- 40
2017-08-06 22:00:00 26.9 7 Nordeste 13 Norte 0 -- -- 46
2017-08-06 21:00:00 27.7 9 Norte 14 Norte 0 -- -- 44
2017-08-06 20:00:00 30.7 3 Sudoeste 18 Sur 0 -- -- 36
2017-08-06 19:00:00 31.6 13 Sur 23 Sur 0 -- -- 35
2017-08-06 18:00:00 33.8 13 Sudoeste 21 Sur 0 -- -- 29
2017-08-06 17:00:00 34.3 13 Sudoeste 27 Sudoeste 0 -- -- 29
2017-08-06 16:00:00 34.5 16 Sudoeste 25 Sur 0 -- -- 28
2017-08-06 15:00:00 34.5 12 Sudoeste 22 Sudoeste 0 -- -- 29
2017-08-06 14:00:00 33.8 10 Sudoeste 21 Sudoeste 0 -- -- 28
2017-08-06 13:00:00 32.3 10 Sudoeste 23 Sudoeste 0 -- -- 32
2017-08-06 12:00:00 30.5 6 Sudoeste 15 Sudoeste 0 -- -- 35
2017-08-06 11:00:00 30.6 3 Sudoeste 9 Sudoeste 0 -- -- 36
2017-08-06 10:00:00 27.9 3 Sur 14 Norte 0 -- -- 36
2017-08-06 09:00:00 24 12 Nordeste 19 Nordeste 0 -- -- 43
2017-08-06 08:00:00 22.5 16 Nordeste 19 Nordeste 0 -- -- 47
2017-08-06 07:00:00 22.4 13 Nordeste 19 Nordeste 0 -- -- 47
2017-08-06 06:00:00 22.7 13 Nordeste 18 Norte 0 -- -- 46
2017-08-06 05:00:00 23.6 13 Nordeste 16 Nordeste 0 -- -- 44
2017-08-06 04:00:00 25.6 3 Este 9 Sur 0 -- -- 38
2017-08-06 03:00:00 26.8 5 Oeste 13 Norte 0 -- -- 37
2017-08-06 02:00:00 25.6 11 Nordeste 15 Nordeste 0 -- -- 39
2017-08-06 01:00:00 26.4 11 Norte 17 Norte 0 -- -- 37
2017-08-06 00:00:00 27.2 8 Nordeste 13 Nordeste 0 -- -- 37
2017-08-05 23:00:00 28.2 6 Nordeste 11 Nordeste 0 -- -- 33
2017-08-05 22:00:00 27.8 6 Nordeste 14 Norte 0 -- -- 33
2017-08-05 21:00:00 29.2 10 Norte 13 Norte 0 -- -- 31
2017-08-05 20:00:00 31.7 6 Sudoeste 18 Sudoeste 0 -- -- 27
2017-08-05 19:00:00 33.5 12 Sudoeste 22 Sur 0 -- -- 26
2017-08-05 18:00:00 34.7 14 Sudoeste 25 Sudoeste 0 -- -- 24
2017-08-05 17:00:00 35.1 14 Sudoeste 27 Sudoeste 0 -- -- 23
2017-08-05 16:00:00 35.6 15 Sudoeste 24 Sur 0 -- -- 24
2017-08-05 15:00:00 35.2 13 Sudoeste 23 Sudoeste 0 -- -- 24
2017-08-05 14:00:00 34.6 12 Sudoeste 23 Sudoeste 0 -- -- 26
2017-08-05 13:00:00 32.6 10 Sudoeste 19 Sudoeste 0 -- -- 31
2017-08-05 12:00:00 30.9 9 Sudoeste 18 Sudoeste 0 -- -- 35
2017-08-05 11:00:00 30.9 3 Sur 6 Sur 0 -- -- 35
2017-08-05 10:00:00 28.3 2 Sur 13 Nordeste 0 -- -- 39
2017-08-05 09:00:00 24.2 12 Nordeste 15 Nordeste 0 -- -- 44
2017-08-05 08:00:00 25 0 Calma 12 Nordeste 0 -- -- 41
2017-08-05 07:00:00 24.4 10 Nordeste 15 Norte 0 -- -- 43
2017-08-05 06:00:00 23.7 13 Nordeste 15 Nordeste 0 -- -- 45
2017-08-05 05:00:00 24.9 12 Nordeste 14 Norte 0 -- -- 42
2017-08-05 04:00:00 25.5 6 Nordeste 10 Nordeste 0 -- -- 41
2017-08-05 03:00:00 25.6 0 Calma 4 Sudoeste 0 -- -- 40
2017-08-05 02:00:00 27.2 0 Calma 9 Nordeste 0 -- -- 37
2017-08-05 01:00:00 28.1 2 Nordeste 5 Norte 0 -- -- 36
2017-08-05 00:00:00 29.3 3 Nordeste 6 Nordeste 0 -- -- 34
2017-08-04 23:00:00 29.8 0 Calma 5 Nordeste 0 -- -- 30
2017-08-04 22:00:00 30.5 2 Este 4 Sudeste 0 -- -- 30
2017-08-04 21:00:00 32.1 0 Calma 10 Sudoeste 0 -- -- 30
2017-08-04 20:00:00 35.4 7 Sudoeste 15 Sudoeste 0 -- -- 25
2017-08-04 19:00:00 36 9 Sudoeste 21 Sur 0 -- -- 21
2017-08-04 18:00:00 35.8 14 Sudoeste 25 Sudoeste 0 -- -- 21
2017-08-04 17:00:00 36 17 Sudoeste 28 Sudoeste 0 -- -- 23
2017-08-04 16:00:00 36.6 20 Sudoeste 31 Sudoeste 0 -- -- 21
2017-08-04 15:00:00 36.6 13 Sudoeste 29 Sudoeste 0 -- -- 20
2017-08-04 14:00:00 36.3 14 Sudoeste 23 Sudoeste 0 -- -- 23
2017-08-04 13:00:00 35.4 11 Sudoeste 17 Sudoeste 0 -- -- 22
2017-08-04 12:00:00 34.7 8 Sudoeste 15 Sudoeste 0 -- -- 23
2017-08-04 11:00:00 32.5 6 Nordeste 15 Norte 0 -- -- 25
2017-08-04 10:00:00 28.1 12 Norte 16 Norte 0 -- -- 27
2017-08-04 09:00:00 24.6 13 Norte 16 Nordeste 0 -- -- 32
2017-08-04 08:00:00 24.4 11 Norte 14 Norte 0 -- -- 31
2017-08-04 07:00:00 24.8 11 Norte 15 Norte 0 -- -- 31
2017-08-04 06:00:00 23.4 14 Norte 18 Norte 0 -- -- 34
2017-08-04 05:00:00 24.3 13 Norte 18 Norte 0 -- -- 34
2017-08-04 04:00:00 24.5 13 Norte 18 Norte 0 -- -- 34
2017-08-04 03:00:00 24.6 13 Norte 20 Norte 0 -- -- 36
2017-08-04 02:00:00 25.3 11 Norte 17 Norte 0 -- -- 37
2017-08-04 01:00:00 25 10 Norte 17 Nordeste 0 -- -- 38
2017-08-04 00:00:00 26.8 12 Norte 17 Norte 0 -- -- 35
2017-08-03 23:00:00 28 7 Norte 14 Norte 0 -- -- 33
2017-08-03 22:00:00 28.7 0 Calma 4 Sur 0 -- -- 35
2017-08-03 21:00:00 30.6 2 Sur 14 Sudoeste 0 -- -- 30
2017-08-03 20:00:00 33.4 11 Sudoeste 19 Sudoeste 0 -- -- 27
2017-08-03 19:00:00 34.9 12 Sudoeste 22 Sur 0 -- -- 26
2017-08-03 18:00:00 36 11 Sudoeste 26 Sudoeste 0 -- -- 25
2017-08-03 17:00:00 35.7 13 Sudoeste 30 Oeste 0 -- -- 26
2017-08-03 16:00:00 35.3 15 Sudoeste 30 Sudoeste 0 -- -- 24
2017-08-03 15:00:00 34.7 14 Sudoeste 26 Sudoeste 0 -- -- 22
2017-08-03 14:00:00 34.4 13 Sudoeste 25 Sudoeste 0 -- -- 24
2017-08-03 13:00:00 33.3 10 Sudoeste 20 Sudoeste 0 -- -- 25
2017-08-03 12:00:00 33.2 7 Sudoeste 13 Sudoeste 0 -- -- 24
2017-08-03 11:00:00 29.9 5 Nordeste 14 Nordeste 0 -- -- 30
2017-08-03 10:00:00 25.4 12 Norte 17 Nordeste 0 -- -- 35
2017-08-03 09:00:00 21.9 13 Norte 18 Nordeste 0 -- -- 40
2017-08-03 08:00:00 20.8 14 Norte 17 Norte 0 -- -- 42
2017-08-03 07:00:00 20.8 15 Nordeste 22 Nordeste 0 -- -- 43
2017-08-03 06:00:00 21.2 13 Norte 19 Norte 0 -- -- 42
2017-08-03 05:00:00 22.1 12 Norte 17 Norte 0 -- -- 39
2017-08-03 04:00:00 22 11 Norte 18 Norte 0 -- -- 41
2017-08-03 03:00:00 23.5 9 Norte 19 Nordeste 0 -- -- 39
2017-08-03 02:00:00 23.4 10 Norte 18 Norte 0 -- -- 40
2017-08-03 01:00:00 23.5 12 Norte 18 Norte 0 -- -- 40
2017-08-03 00:00:00 24 12 Nordeste 16 Nordeste 0 -- -- 39
2017-08-02 23:00:00 25.3 9 Nordeste 20 Norte 0 -- -- 36
2017-08-02 22:00:00 26.9 9 Nordeste 21 Norte 0 -- -- 34
2017-08-02 21:00:00 29.3 6 Norte 23 Norte 0 -- -- 31
2017-08-02 20:00:00 31.7 10 Sudoeste 22 Sudoeste 0 -- -- 31
2017-08-02 19:00:00 32.9 14 Sudoeste 24 Sudoeste 0 -- -- 28
2017-08-02 18:00:00 33.6 16 Sudoeste 26 Sudoeste 0 -- -- 29
2017-08-02 17:00:00 33.5 12 Sudoeste 29 Sudoeste 0 -- -- 30
2017-08-02 16:00:00 33.3 13 Sudoeste 27 Sudoeste 0 -- -- 29
2017-08-02 15:00:00 -- 15 Sudoeste 31 Sudoeste 0 -- -- --
2017-08-02 14:00:00 31.9 11 Sudoeste 26 Sur 0 -- -- 28
2017-08-02 13:00:00 30.3 13 Sudoeste 23 Sur 0 -- -- 28
2017-08-02 12:00:00 29 9 Sudoeste 17 Sudoeste 0 -- -- 31
2017-08-02 11:00:00 -- 4 Sur 10 Sudoeste 0 -- -- --
2017-08-02 10:00:00 24.2 8 Nordeste 15 Nordeste 0 -- -- 41
2017-08-02 09:00:00 21 12 Norte 16 Norte 0 -- -- 47
2017-08-02 08:00:00 19.7 12 Norte 17 Norte 0 -- -- 51
2017-08-02 07:00:00 18.8 13 Norte 17 Norte 0 -- -- 55
2017-08-02 06:00:00 18.8 12 Norte 17 Norte 0 -- -- 56
2017-08-02 05:00:00 19.2 12 Norte 18 Norte 0 -- -- 55
2017-08-02 04:00:00 20.1 11 Nordeste 18 Norte 0 -- -- 53
2017-08-02 03:00:00 20.2 12 Norte 20 Nordeste 0 -- -- 54
2017-08-02 02:00:00 20.9 10 Norte 19 Norte 0 -- -- 53
2017-08-02 01:00:00 20.6 14 Norte 19 Norte 0 -- -- 55
2017-08-02 00:00:00 21.1 12 Norte 21 Norte 0 -- -- 54
2017-08-01 23:00:00 22.1 12 Norte 21 Norte 0 -- -- 50
2017-08-01 22:00:00 23.5 8 Norte 27 Norte 0 -- -- 46
2017-08-01 21:00:00 24.7 13 Norte 26 Norte 0 -- -- 43
2017-08-01 20:00:00 26 13 Norte 30 Nordeste 0 -- -- 40
2017-08-01 19:00:00 26.9 11 Norte 30 Norte 0 -- -- 39
2017-08-01 18:00:00 27.6 15 Norte 24 Norte 0 -- -- 40
2017-08-01 17:00:00 28 8 Norte 31 Noroeste 0 -- -- 42
2017-08-01 16:00:00 25.6 14 Norte 31 Norte 0 -- -- 50
2017-08-01 15:00:00 26.8 8 Norte 17 Norte 0 -- -- 46
2017-08-01 14:00:00 25.5 7 Norte 20 Norte 0 -- -- 47
2017-08-01 13:00:00 25 5 Noroeste 15 Oeste 0 -- -- 47
2017-08-01 12:00:00 24.5 4 Sudoeste 17 Nordeste 0 -- -- 45
2017-08-01 11:00:00 23.1 9 Norte 19 Norte 0 -- -- 44
2017-08-01 10:00:00 21.9 7 Norte 18 Norte 0 -- -- 38
2017-08-01 09:00:00 19.6 7 Nordeste 15 Norte 0 -- -- 43
2017-08-01 08:00:00 19 10 Norte 18 Norte 0 -- -- 46
2017-08-01 07:00:00 -- -- -- -- -- -- -- -- --
2017-08-01 06:00:00 19.6 10 Norte 18 Norte 0 -- -- 45
2017-08-01 05:00:00 20.5 9 Norte 22 Norte 0 -- -- 35
2017-08-01 04:00:00 20.8 10 Norte 19 Norte 0 -- -- 32
2017-08-01 03:00:00 21.5 12 Norte 23 Noroeste 0 -- -- 37
2017-08-01 02:00:00 23.5 12 Norte 19 Noroeste 0 -- -- 31
2017-08-01 01:00:00 24 11 Norte 24 Norte 0 -- -- 32
2017-08-01 00:00:00 23.4 12 Norte 28 Norte 0 -- -- 37
2017-07-31 23:00:00 23 12 Norte 26 Norte 0 -- -- 39
2017-07-31 22:00:00 24.1 7 Nordeste 18 Norte 0 -- -- 36
2017-07-31 21:00:00 27 10 Norte 22 Norte 0 -- -- 34
2017-07-31 20:00:00 30.6 8 Noroeste 19 Noroeste 0 -- -- 33
2017-07-31 19:00:00 33.1 8 Oeste 24 Sudoeste 0 -- -- 31
2017-07-31 18:00:00 34.1 11 Sudoeste 21 Sudoeste 0 -- -- 26
2017-07-31 17:00:00 33.6 5 Este 24 Sur 0 -- -- 34
2017-07-31 16:00:00 33.6 12 Sudoeste 23 Sur 0 -- -- 35
2017-07-31 15:00:00 32.2 10 Sudoeste 24 Oeste 0 -- -- 39
2017-07-31 14:00:00 30.6 12 Sudoeste 22 Sudoeste 0 -- -- 43
2017-07-31 13:00:00 29.1 9 Sudoeste 19 Sudoeste 0 -- -- 47
2017-07-31 12:00:00 28.1 8 Sudoeste 13 Sur 0 -- -- 47
2017-07-31 11:00:00 28.7 2 Sudoeste 10 Nordeste 0 -- -- 41
2017-07-31 10:00:00 26.8 4 Nordeste 14 Nordeste 0 -- -- 42
2017-07-31 09:00:00 22.4 13 Norte 16 Nordeste 0 -- -- 54
2017-07-31 08:00:00 20.5 14 Nordeste 16 Nordeste 0 -- -- 61
2017-07-31 07:00:00 20.8 12 Norte 19 Norte 0 -- -- 61
2017-07-31 06:00:00 21 13 Norte 19 Norte 0 -- -- 61
2017-07-31 05:00:00 22 12 Norte 16 Norte 0 -- -- 55
2017-07-31 04:00:00 24.7 10 Norte 26 Norte 0 -- -- 38
2017-07-31 03:00:00 23.8 16 Norte 28 Norte 0 -- -- 45
2017-07-31 02:00:00 24.7 11 Norte 20 Norte 0 -- -- 51
2017-07-31 01:00:00 26.2 9 Norte 19 Norte 0 -- -- 44
2017-07-31 00:00:00 26.4 8 Norte 13 Norte 0 -- -- 51
2017-07-30 23:00:00 27.1 7 Norte 13 Nordeste 0 -- -- 49
2017-07-30 22:00:00 28 3 Norte 6 Norte 0 -- -- 47
2017-07-30 21:00:00 30.3 3 Sudoeste 13 Sudoeste 0 -- -- 38
2017-07-30 20:00:00 33.3 10 Sudoeste 20 Sudoeste 0 -- -- 31
2017-07-30 19:00:00 34.3 14 Sudoeste 25 Sudoeste 0 -- -- 31
2017-07-30 18:00:00 35.2 15 Sudoeste 25 Sudoeste 0 -- -- 30
2017-07-30 17:00:00 35.3 13 Sudoeste 26 Sudoeste 0 -- -- 32
2017-07-30 16:00:00 34.7 13 Sudoeste 27 Sudoeste 0 -- -- 34
2017-07-30 15:00:00 34.4 12 Sudoeste 24 Sudoeste 0 -- -- 31
2017-07-30 14:00:00 33.3 11 Sudoeste 22 Sur 0 -- -- 33
2017-07-30 13:00:00 32.2 11 Sudoeste 18 Sur 0 -- -- 32
2017-07-30 12:00:00 31.6 7 Sudoeste 13 Oeste 0 -- -- 30
2017-07-30 11:00:00 31 3 Sudoeste 9 Norte 0 -- -- 32
2017-07-30 10:00:00 27.4 7 Nordeste 14 Norte 0 -- -- 33
2017-07-30 09:00:00 23.7 12 Norte 16 Norte 0 -- -- 38
2017-07-30 08:00:00 24.4 7 Norte 11 Norte 0 -- -- 34
2017-07-30 07:00:00 23.3 10 Nordeste 17 Nordeste 0 -- -- 39
2017-07-30 06:00:00 24.4 3 Norte 15 Norte 0 -- -- 39
2017-07-30 05:00:00 24.6 13 Nordeste 15 Nordeste 0 -- -- 41
2017-07-30 04:00:00 24.1 13 Norte 17 Nordeste 0 -- -- 45
2017-07-30 03:00:00 23.8 14 Norte 18 Norte 0 -- -- 46
2017-07-30 02:00:00 24.7 6 Norte 18 Norte 0 -- -- 48
2017-07-30 01:00:00 25.5 11 Norte 17 Norte 0 -- -- 47
2017-07-30 00:00:00 27.9 8 Norte 14 Norte 0 -- -- 41
2017-07-29 23:00:00 28.3 9 Norte 15 Norte 0 -- -- 41
2017-07-29 22:00:00 29.5 10 Norte 18 Norte 0 -- -- 39
2017-07-29 21:00:00 31.4 5 Oeste 12 Oeste 0 -- -- 36
2017-07-29 20:00:00 33.6 8 Sudoeste 18 Sudoeste 0 -- -- 35
2017-07-29 19:00:00 34.8 11 Sudoeste 26 Sudoeste 0 -- -- 33
2017-07-29 18:00:00 35.2 13 Sudoeste 28 Sudoeste 0 -- -- 33
2017-07-29 17:00:00 35.1 13 Sudoeste 26 Sudoeste 0 -- -- 34
2017-07-29 16:00:00 34.8 14 Sudoeste 24 Sudoeste 0 -- -- 30
2017-07-29 15:00:00 33.9 15 Sudoeste 29 Sudoeste 0 -- -- 31
2017-07-29 14:00:00 33.6 13 Sudoeste 24 Sudoeste 0 -- -- 32
2017-07-29 13:00:00 32.4 11 Sudoeste 20 Sudoeste 0 -- -- 32
2017-07-29 12:00:00 31.3 8 Sudoeste 15 Sudoeste 0 -- -- 34
2017-07-29 11:00:00 31.1 3 Sur 6 Sudoeste 0 -- -- 31
2017-07-29 10:00:00 28.3 5 Nordeste 9 Nordeste 0 -- -- 29
2017-07-29 09:00:00 24.6 5 Norte 10 Nordeste 0 -- -- 33
2017-07-29 08:00:00 24.8 3 Nordeste 17 Nordeste 0 -- -- 29
2017-07-29 07:00:00 -- -- -- -- -- -- -- -- --
2017-07-29 06:00:00 22.8 15 Nordeste 21 Norte 0 -- -- 35
2017-07-29 05:00:00 23.5 12 Nordeste 19 Norte 0 -- -- 34
2017-07-29 04:00:00 24 14 Nordeste 17 Nordeste 0 -- -- 35
2017-07-29 03:00:00 24.4 12 Nordeste 15 Nordeste 0 -- -- 36
2017-07-29 02:00:00 25.5 8 Nordeste 17 Norte 0 -- -- 34
2017-07-29 01:00:00 25.2 12 Norte 18 Norte 0 -- -- 37
2017-07-29 00:00:00 26.2 10 Nordeste 18 Norte 0 -- -- 36
2017-07-28 23:00:00 27.4 9 Norte 16 Norte 0 -- -- 34
2017-07-28 22:00:00 29.3 10 Norte 23 Norte 0 -- -- 31
2017-07-28 21:00:00 31.1 10 Norte 25 Norte 0 -- -- 30
2017-07-28 20:00:00 33.7 8 Norte 26 Noroeste 0 -- -- 30
2017-07-28 19:00:00 35.1 10 Norte 27 Sudoeste 0 -- -- 30
2017-07-28 18:00:00 36.9 8 Noroeste 30 Sudoeste 0 -- -- 27
2017-07-28 17:00:00 36.7 12 Sudoeste 28 Sur 0 -- -- 31
2017-07-28 16:00:00 36.6 14 Sudoeste 29 Sudoeste 0 -- -- 29
2017-07-28 15:00:00 36.6 15 Sudoeste 26 Sur 0 -- -- 26
2017-07-28 14:00:00 34.8 10 Sudoeste 22 Sudoeste 0 -- -- 30
2017-07-28 13:00:00 32.8 9 Sudoeste 17 Sudoeste 0 -- -- 32
2017-07-28 12:00:00 31.8 7 Sudoeste 10 Sudoeste 0 -- -- 38
2017-07-28 11:00:00 31.3 3 Sur 10 Nordeste 0 -- -- 35
2017-07-28 10:00:00 27.5 9 Nordeste 17 Nordeste 0 -- -- 39
2017-07-28 09:00:00 22.7 15 Nordeste 18 Nordeste 0 -- -- 49
2017-07-28 08:00:00 21.4 15 Nordeste 17 Norte 0 -- -- 53
2017-07-28 07:00:00 21.7 14 Nordeste 18 Nordeste 0 -- -- 54
2017-07-28 06:00:00 23.2 10 Nordeste 16 Nordeste 0 -- -- 50
2017-07-28 05:00:00 23 6 Norte 17 Norte 0 -- -- 54
2017-07-28 04:00:00 22.8 13 Nordeste 17 Norte 0 -- -- 59
2017-07-28 03:00:00 22 13 Norte 18 Nordeste 0 -- -- 68
2017-07-28 02:00:00 23.9 8 Nordeste 12 Nordeste 0 -- -- 61
2017-07-28 01:00:00 23.3 10 Nordeste 13 Nordeste 0 -- -- 65
2017-07-28 00:00:00 23.8 2 Noroeste 13 Norte 0 -- -- 63
2017-07-27 23:00:00 24.3 8 Nordeste 14 Norte 0 -- -- 63
2017-07-27 22:00:00 25.8 8 Nordeste 10 Norte 0 -- -- 58
2017-07-27 21:00:00 27.6 0 Calma 9 Sudoeste 0 -- -- 53
2017-07-27 20:00:00 29.1 6 Sudoeste 16 Sudoeste 0 -- -- 49
2017-07-27 19:00:00 30.1 9 Sudoeste 20 Sudoeste 0 -- -- 49
2017-07-27 18:00:00 29.9 11 Sudoeste 22 Sudoeste 0 -- -- 51
2017-07-27 17:00:00 29.8 12 Sudoeste 23 Sudoeste 0 -- -- 53
2017-07-27 16:00:00 28.6 12 Sudoeste 20 Sur 0 -- -- 58
2017-07-27 15:00:00 29.3 13 Sudoeste 24 Sur 0 -- -- 55
2017-07-27 14:00:00 29 11 Sudoeste 19 Sudoeste 0 -- -- 58
2017-07-27 13:00:00 27 10 Sudoeste 19 Sudoeste 0 -- -- 64
2017-07-27 12:00:00 25.2 6 Sur 14 Sudoeste 0 -- -- 71
2017-07-27 11:00:00 22.9 4 Sudoeste 6 Sudoeste 0 -- -- 80
2017-07-27 10:00:00 21.7 2 Sudoeste 6 Noroeste 0 -- -- 82
2017-07-27 09:00:00 19.5 2 Norte 6 Norte 0 -- -- 90
2017-07-27 08:00:00 19.2 7 Nordeste 10 Nordeste 0 -- -- 89
2017-07-27 07:00:00 20.1 6 Nordeste 12 Norte 0 -- -- 85
2017-07-27 06:00:00 19.7 11 Nordeste 13 Nordeste 0 -- -- 88
2017-07-27 05:00:00 20.4 4 Nordeste 13 Nordeste 0 -- -- 86
2017-07-27 04:00:00 19.8 9 Nordeste 13 Nordeste 0 -- -- 88
2017-07-27 03:00:00 -- -- -- -- -- -- -- -- --
2017-07-27 02:00:00 -- -- -- -- -- -- -- -- --
2017-07-27 01:00:00 -- -- -- -- -- -- -- -- --
2017-07-27 00:00:00 -- -- -- -- -- -- -- -- --
2017-07-26 23:00:00 -- -- -- -- -- -- -- -- --
2017-07-26 22:00:00 -- -- -- -- -- -- -- -- --
2017-07-26 21:00:00 -- -- -- -- -- -- -- -- --
2017-07-26 20:00:00 -- -- -- -- -- -- -- -- --
2017-07-26 19:00:00 -- -- -- -- -- -- -- -- --
2017-07-26 18:00:00 -- -- -- -- -- -- -- -- --
2017-07-26 17:00:00 -- -- -- -- -- -- -- -- --
2017-07-26 16:00:00 -- -- -- -- -- -- -- -- --
2017-07-26 15:00:00 -- -- -- -- -- -- -- -- --
2017-07-26 14:00:00 26.5 17 Sudoeste 28 Sudoeste 0 -- -- 65
2017-07-26 13:00:00 25.3 14 Sudoeste 27 Sudoeste 0 -- -- 69
2017-07-26 12:00:00 24.4 9 Sudoeste 16 Sudoeste 0 -- -- 72
2017-07-26 11:00:00 22.9 6 Sudoeste 12 Sudoeste 0 -- -- 74
2017-07-26 10:00:00 21.6 3 Sudoeste 9 Norte 0 -- -- 78
2017-07-26 09:00:00 18.6 7 Nordeste 9 Nordeste 0 -- -- 84
2017-07-26 08:00:00 18.2 0 Calma 2 Sur 0 -- -- 85
2017-07-26 07:00:00 18.8 0 Calma 4 Sur 0 -- -- 82
2017-07-26 06:00:00 19.4 0 Calma 8 Nordeste 0 -- -- 80
2017-07-26 05:00:00 19.7 0 Calma 5 Nordeste 0 -- -- 79
2017-07-26 04:00:00 20.2 0 Calma 4 Sur 0 -- -- 77
2017-07-26 03:00:00 20.4 2 Sur 6 Nordeste 0 -- -- 76
2017-07-26 02:00:00 20.9 0 Calma 5 Sur 0 -- -- 73
2017-07-26 01:00:00 20.9 0 Calma 3 Sur 0 -- -- 75
2017-07-26 00:00:00 21.8 0 Calma 9 Norte 0 -- -- 71
2017-07-25 23:00:00 22.9 6 Norte 12 Norte 0 -- -- 70
2017-07-25 22:00:00 23.5 3 Sur 8 Sur 0 -- -- 66
2017-07-25 21:00:00 26.2 6 Sudoeste 12 Sudoeste 0 -- -- 59
2017-07-25 20:00:00 28.9 8 Sudoeste 17 Sudoeste 0 -- -- 53
2017-07-25 19:00:00 29.3 10 Sudoeste 21 Oeste 0 -- -- 53
2017-07-25 18:00:00 29.8 12 Sudoeste 24 Sudoeste 0 -- -- 52
2017-07-25 17:00:00 29.7 13 Sudoeste 26 Sur 0 -- -- 52
2017-07-25 16:00:00 29.4 14 Sudoeste 26 Sur 0 -- -- 52
2017-07-25 15:00:00 -- -- -- -- -- -- -- -- --
2017-07-25 14:00:00 28.5 12 Sudoeste 24 Sudoeste 0 -- -- 49
2017-07-25 13:00:00 27.5 13 Sudoeste 23 Sudoeste 0 -- -- 49
2017-07-25 12:00:00 26.3 12 Sudoeste 22 Sudoeste 0 -- -- 53
2017-07-25 11:00:00 26.9 5 Sudoeste 9 Sudoeste 0 -- -- 51
2017-07-25 10:00:00 25.8 0 Calma 9 Nordeste 0 -- -- 51
2017-07-25 09:00:00 23.8 2 Nordeste 14 Nordeste 0 -- -- 44
2017-07-25 08:00:00 22.5 13 Nordeste 15 Norte 0 -- -- 45
2017-07-25 07:00:00 23.2 14 Nordeste 17 Nordeste 0 -- -- 43
2017-07-25 06:00:00 22.6 15 Nordeste 18 Norte 0 -- -- 46
2017-07-25 05:00:00 23.4 14 Nordeste 18 Norte 0 -- -- 45
2017-07-25 04:00:00 24.1 13 Nordeste 18 Norte 0 -- -- 44
2017-07-25 03:00:00 23.6 12 Nordeste 20 Nordeste 0 -- -- 46
2017-07-25 02:00:00 24.2 9 Nordeste 15 Norte 0 -- -- 45
2017-07-25 01:00:00 24.9 8 Nordeste 17 Nordeste 0 -- -- 44
2017-07-25 00:00:00 26.2 8 Nordeste 19 Nordeste 0 -- -- 40
2017-07-24 23:00:00 26.9 12 Norte 27 Norte 0 -- -- 41
2017-07-24 22:00:00 27.8 10 Norte 30 Noroeste 0 -- -- 40
2017-07-24 21:00:00 29.9 15 Norte 28 Norte 0 -- -- 36
2017-07-24 20:00:00 32.7 9 Norte 28 Noroeste 0 -- -- 29
2017-07-24 19:00:00 33.9 10 Noroeste 30 Noroeste 0 -- -- 24
2017-07-24 18:00:00 34.2 13 Norte 37 Noroeste 0 -- -- 22
2017-07-24 17:00:00 35.1 8 Noroeste 32 Noroeste 0 -- -- 23
2017-07-24 16:00:00 34.8 12 Noroeste 31 Noroeste 0 -- -- 23
2017-07-24 15:00:00 34.9 8 Noroeste 21 Noroeste 0 -- -- 24
2017-07-24 14:00:00 34.2 8 Oeste 17 Noroeste 0 -- -- 24
2017-07-24 13:00:00 33.4 6 Noroeste 21 Norte 0 -- -- 23
2017-07-24 12:00:00 32.1 8 Norte 20 Norte 0 -- -- 25
2017-07-24 11:00:00 28.7 7 Nordeste 14 Norte 0 -- -- 35
2017-07-24 10:00:00 25.2 8 Norte 18 Norte 0 -- -- 37
2017-07-24 09:00:00 21.7 10 Norte 19 Nordeste 0 -- -- 41
2017-07-24 08:00:00 18.1 14 Norte 20 Norte 0 -- -- 50
2017-07-24 07:00:00 18.1 13 Norte 22 Norte 0 -- -- 51
2017-07-24 06:00:00 19.1 15 Norte 23 Norte 0 -- -- 50
2017-07-24 05:00:00 20.4 14 Norte 28 Norte 0 -- -- 47
2017-07-24 04:00:00 20.6 12 Norte 31 Noroeste 0 -- -- 48
2017-07-24 03:00:00 20.7 14 Norte 21 Norte 0 -- -- 49
2017-07-24 02:00:00 21.3 12 Norte 19 Norte 0 -- -- 47
2017-07-24 01:00:00 22.5 12 Norte 22 Norte 0 -- -- 44
2017-07-24 00:00:00 23.1 13 Norte 20 Norte 0 -- -- 44
2017-07-23 23:00:00 24.6 12 Norte 23 Norte 0 -- -- 42
2017-07-23 22:00:00 26.6 17 Norte 27 Norte 0 -- -- 39
2017-07-23 21:00:00 29.1 9 Norte 21 Nordeste 0 -- -- 35
2017-07-23 20:00:00 32 10 Sudoeste 21 Sudoeste 0 -- -- 34
2017-07-23 19:00:00 -- 17 Sudoeste 24 Sudoeste 0 -- -- --
2017-07-23 18:00:00 33 14 Sudoeste 27 Sudoeste 0 -- -- 31
2017-07-23 17:00:00 33 13 Sudoeste 27 Sudoeste 0 -- -- 32
2017-07-23 16:00:00 32.9 13 Sudoeste 27 Sudoeste 0 -- -- 31
2017-07-23 15:00:00 -- -- -- -- -- -- -- -- --
2017-07-23 14:00:00 32.1 12 Sudoeste 24 Sur 0 -- -- 26
2017-07-23 13:00:00 30.3 8 Sudoeste 19 Sudoeste 0 -- -- 32
2017-07-23 12:00:00 28.6 3 Sur 14 Noroeste 0 -- -- 36
2017-07-23 11:00:00 25.9 7 Norte 16 Norte 0 -- -- 40
2017-07-23 10:00:00 22.9 10 Norte 18 Norte 0 -- -- 47
2017-07-23 09:00:00 19.4 12 Norte 20 Norte 0 -- -- 57
2017-07-23 08:00:00 18.2 13 Norte 19 Norte 0 -- -- 61
2017-07-23 07:00:00 18.3 12 Norte 18 Norte 0 -- -- 62
2017-07-23 06:00:00 18.4 13 Norte 20 Norte 0 -- -- 62
2017-07-23 05:00:00 19.5 10 Norte 18 Norte 0 -- -- 58
2017-07-23 04:00:00 19.8 10 Norte 17 Norte 0 -- -- 59
2017-07-23 03:00:00 20.4 11 Norte 18 Norte 0 -- -- 57
2017-07-23 02:00:00 21.3 8 Norte 16 Norte 0 -- -- 56
2017-07-23 01:00:00 21.4 9 Norte 18 Norte 0 -- -- 56
2017-07-23 00:00:00 22.1 10 Norte 15 Norte 0 -- -- 54
2017-07-22 23:00:00 22.8 9 Norte 17 Norte 0 -- -- 52
2017-07-22 22:00:00 24.8 4 Norte 13 Noroeste 0 -- -- 46
2017-07-22 21:00:00 27.1 5 Noroeste 15 Norte 0 -- -- 42
2017-07-22 20:00:00 29.7 8 Sur 23 Sur 0 -- -- 41
2017-07-22 19:00:00 -- -- -- -- -- -- -- -- --
2017-07-22 18:00:00 32 12 Sudoeste 26 Sudoeste 0 -- -- 38
2017-07-22 17:00:00 32 12 Sudoeste 24 Sur 0 -- -- 37
2017-07-22 16:00:00 30.9 13 Sudoeste 27 Sur 0 -- -- 37
2017-07-22 15:00:00 29.5 12 Sudoeste 28 Sudoeste 0 -- -- 40
2017-07-22 14:00:00 28.3 12 Sudoeste 22 Sudoeste 0 -- -- 40
2017-07-22 13:00:00 27.1 10 Sudoeste 21 Sudoeste 0 -- -- 43
2017-07-22 12:00:00 25.8 8 Sudoeste 15 Sudoeste 0 -- -- 44
2017-07-22 11:00:00 23.9 6 Nordeste 15 Norte 0 -- -- 44
2017-07-22 10:00:00 21.1 9 Norte 19 Norte 0 -- -- 50
2017-07-22 09:00:00 17.2 15 Norte 21 Nordeste 0 -- -- 57
2017-07-22 08:00:00 16.2 12 Norte 27 Norte 0 -- -- 60
2017-07-22 07:00:00 15.7 13 Norte 28 Norte 0 -- -- 62
2017-07-22 06:00:00 15.8 12 Norte 27 Norte 0 -- -- 62
2017-07-22 05:00:00 16.1 14 Norte 26 Norte 0 -- -- 60
2017-07-22 04:00:00 16.3 13 Norte 22 Norte 0 -- -- 60
2017-07-22 03:00:00 16.6 13 Norte 24 Nordeste 0 -- -- 65
2017-07-22 02:00:00 17.1 10 Nordeste 17 Norte 0 -- -- 64
2017-07-22 01:00:00 18.1 14 Norte 17 Norte 0 -- -- 62
2017-07-22 00:00:00 19.2 11 Norte 17 Norte 0 -- -- 59